sensor_id;sensor_type;location;lat;lon;timestamp;P1;durP1;ratioP1;P2;durP2;ratioP2
4980;SDS011;2507;50.392;7.482;2023-02-08T00:01:23;24.73;;;16.30;;
4980;SDS011;2507;50.392;7.482;2023-02-08T00:03:50;21.30;;;15.70;;
4980;SDS011;2507;50.392;7.482;2023-02-08T00:06:15;20.80;;;15.93;;
4980;SDS011;2507;50.392;7.482;2023-02-08T00:08:41;21.97;;;16.10;;
4980;SDS011;2507;50.392;7.482;2023-02-08T00:11:07;19.00;;;14.50;;
4980;SDS011;2507;50.392;7.482;2023-02-08T00:13:36;19.83;;;15.13;;
4980;SDS011;2507;50.392;7.482;2023-02-08T00:16:03;20.50;;;14.97;;
4980;SDS011;2507;50.392;7.482;2023-02-08T00:18:29;17.27;;;13.80;;
4980;SDS011;2507;50.392;7.482;2023-02-08T00:20:54;18.80;;;13.80;;
4980;SDS011;2507;50.392;7.482;2023-02-08T00:23:21;16.33;;;14.37;;
4980;SDS011;2507;50.392;7.482;2023-02-08T00:25:47;18.03;;;13.37;;
4980;SDS011;2507;50.392;7.482;2023-02-08T00:28:13;17.20;;;14.17;;
4980;SDS011;2507;50.392;7.482;2023-02-08T00:30:39;20.27;;;15.13;;
4980;SDS011;2507;50.392;7.482;2023-02-08T00:33:05;23.30;;;15.00;;
4980;SDS011;2507;50.392;7.482;2023-02-08T00:35:30;17.77;;;14.87;;
4980;SDS011;2507;50.392;7.482;2023-02-08T00:37:56;15.70;;;13.87;;
4980;SDS011;2507;50.392;7.482;2023-02-08T00:40:21;18.07;;;15.37;;
4980;SDS011;2507;50.392;7.482;2023-02-08T00:42:46;18.70;;;15.00;;
4980;SDS011;2507;50.392;7.482;2023-02-08T00:45:12;19.60;;;13.70;;
4980;SDS011;2507;50.392;7.482;2023-02-08T00:47:37;19.33;;;15.27;;
4980;SDS011;2507;50.392;7.482;2023-02-08T00:50:03;19.70;;;15.03;;
4980;SDS011;2507;50.392;7.482;2023-02-08T00:52:29;18.73;;;15.20;;
4980;SDS011;2507;50.392;7.482;2023-02-08T00:54:54;21.97;;;17.10;;
4980;SDS011;2507;50.392;7.482;2023-02-08T00:57:19;21.97;;;15.47;;
4980;SDS011;2507;50.392;7.482;2023-02-08T00:59:45;20.07;;;15.20;;
4980;SDS011;2507;50.392;7.482;2023-02-08T01:02:10;19.00;;;14.87;;
4980;SDS011;2507;50.392;7.482;2023-02-08T01:04:36;18.40;;;14.20;;
4980;SDS011;2507;50.392;7.482;2023-02-08T01:07:01;22.90;;;16.30;;
4980;SDS011;2507;50.392;7.482;2023-02-08T01:09:27;20.60;;;15.07;;
4980;SDS011;2507;50.392;7.482;2023-02-08T01:11:53;17.77;;;13.80;;
4980;SDS011;2507;50.392;7.482;2023-02-08T01:14:18;21.40;;;14.10;;
4980;SDS011;2507;50.392;7.482;2023-02-08T01:16:43;20.47;;;14.83;;
4980;SDS011;2507;50.392;7.482;2023-02-08T01:19:09;17.77;;;13.80;;
4980;SDS011;2507;50.392;7.482;2023-02-08T01:21:38;22.93;;;14.20;;
4980;SDS011;2507;50.392;7.482;2023-02-08T01:24:04;19.80;;;14.60;;
4980;SDS011;2507;50.392;7.482;2023-02-08T01:26:30;19.50;;;15.00;;
4980;SDS011;2507;50.392;7.482;2023-02-08T01:28:56;20.13;;;14.30;;
4980;SDS011;2507;50.392;7.482;2023-02-08T01:31:23;21.50;;;13.47;;
4980;SDS011;2507;50.392;7.482;2023-02-08T01:33:51;25.43;;;17.20;;
4980;SDS011;2507;50.392;7.482;2023-02-08T01:36:17;19.03;;;15.03;;
4980;SDS011;2507;50.392;7.482;2023-02-08T01:38:43;16.20;;;14.27;;
4980;SDS011;2507;50.392;7.482;2023-02-08T01:41:19;21.70;;;14.70;;
4980;SDS011;2507;50.392;7.482;2023-02-08T01:43:58;18.37;;;14.80;;
4980;SDS011;2507;50.392;7.482;2023-02-08T01:46:26;18.80;;;13.90;;
4980;SDS011;2507;50.392;7.482;2023-02-08T01:48:52;18.27;;;14.07;;
4980;SDS011;2507;50.392;7.482;2023-02-08T01:51:22;18.17;;;14.37;;
4980;SDS011;2507;50.392;7.482;2023-02-08T01:53:51;18.87;;;14.93;;
4980;SDS011;2507;50.392;7.482;2023-02-08T01:56:20;21.50;;;16.10;;
4980;SDS011;2507;50.392;7.482;2023-02-08T01:58:51;20.37;;;16.00;;
4980;SDS011;2507;50.392;7.482;2023-02-08T02:01:19;18.80;;;14.30;;
4980;SDS011;2507;50.392;7.482;2023-02-08T02:03:44;20.83;;;14.60;;
4980;SDS011;2507;50.392;7.482;2023-02-08T02:06:11;22.63;;;15.10;;
4980;SDS011;2507;50.392;7.482;2023-02-08T02:08:41;18.47;;;14.47;;
4980;SDS011;2507;50.392;7.482;2023-02-08T02:11:13;18.33;;;14.13;;
4980;SDS011;2507;50.392;7.482;2023-02-08T02:13:38;18.10;;;14.90;;
4980;SDS011;2507;50.392;7.482;2023-02-08T02:16:04;18.00;;;13.97;;
4980;SDS011;2507;50.392;7.482;2023-02-08T02:18:30;18.73;;;14.70;;
4980;SDS011;2507;50.392;7.482;2023-02-08T02:32:06;17.90;;;13.77;;
4980;SDS011;2507;50.392;7.482;2023-02-08T02:34:45;17.57;;;13.50;;
4980;SDS011;2507;50.392;7.482;2023-02-08T02:37:44;18.93;;;13.53;;
4980;SDS011;2507;50.392;7.482;2023-02-08T02:42:58;17.37;;;13.17;;
4980;SDS011;2507;50.392;7.482;2023-02-08T02:48:41;16.60;;;13.73;;
4980;SDS011;2507;50.392;7.482;2023-02-08T02:51:17;20.47;;;13.47;;
4980;SDS011;2507;50.392;7.482;2023-02-08T02:53:53;21.90;;;14.60;;
4980;SDS011;2507;50.392;7.482;2023-02-08T02:56:24;19.27;;;14.10;;
4980;SDS011;2507;50.392;7.482;2023-02-08T02:58:55;20.83;;;15.73;;
4980;SDS011;2507;50.392;7.482;2023-02-08T03:01:23;22.43;;;16.80;;
4980;SDS011;2507;50.392;7.482;2023-02-08T03:03:54;22.77;;;16.83;;
4980;SDS011;2507;50.392;7.482;2023-02-08T03:06:24;23.50;;;16.43;;
4980;SDS011;2507;50.392;7.482;2023-02-08T03:09:07;23.03;;;16.30;;
4980;SDS011;2507;50.392;7.482;2023-02-08T03:12:38;23.23;;;15.17;;
4980;SDS011;2507;50.392;7.482;2023-02-08T03:17:44;21.97;;;14.60;;
4980;SDS011;2507;50.392;7.482;2023-02-08T03:25:50;25.00;;;16.67;;
4980;SDS011;2507;50.392;7.482;2023-02-08T03:31:20;22.60;;;15.40;;
4980;SDS011;2507;50.392;7.482;2023-02-08T03:36:39;22.80;;;15.30;;
4980;SDS011;2507;50.392;7.482;2023-02-08T03:39:07;22.70;;;15.90;;
4980;SDS011;2507;50.392;7.482;2023-02-08T03:41:37;20.47;;;14.43;;
4980;SDS011;2507;50.392;7.482;2023-02-08T03:46:55;18.70;;;14.00;;
4980;SDS011;2507;50.392;7.482;2023-02-08T03:49:27;19.67;;;15.60;;
4980;SDS011;2507;50.392;7.482;2023-02-08T03:51:58;24.50;;;15.50;;
4980;SDS011;2507;50.392;7.482;2023-02-08T03:54:27;22.73;;;16.03;;
4980;SDS011;2507;50.392;7.482;2023-02-08T03:57:07;21.20;;;15.33;;
4980;SDS011;2507;50.392;7.482;2023-02-08T03:59:38;24.60;;;16.10;;
4980;SDS011;2507;50.392;7.482;2023-02-08T04:02:07;22.20;;;16.70;;
4980;SDS011;2507;50.392;7.482;2023-02-08T04:04:39;21.97;;;14.40;;
4980;SDS011;2507;50.392;7.482;2023-02-08T04:07:08;20.90;;;15.37;;
4980;SDS011;2507;50.392;7.482;2023-02-08T04:09:33;24.57;;;16.87;;
4980;SDS011;2507;50.392;7.482;2023-02-08T04:11:59;22.03;;;15.50;;
4980;SDS011;2507;50.392;7.482;2023-02-08T04:14:24;20.97;;;15.30;;
4980;SDS011;2507;50.392;7.482;2023-02-08T04:16:49;18.90;;;14.83;;
4980;SDS011;2507;50.392;7.482;2023-02-08T04:19:15;20.00;;;14.30;;
4980;SDS011;2507;50.392;7.482;2023-02-08T04:21:40;21.30;;;15.67;;
4980;SDS011;2507;50.392;7.482;2023-02-08T04:24:05;24.30;;;17.10;;
4980;SDS011;2507;50.392;7.482;2023-02-08T04:26:31;19.87;;;14.77;;
4980;SDS011;2507;50.392;7.482;2023-02-08T04:28:56;33.37;;;16.90;;
4980;SDS011;2507;50.392;7.482;2023-02-08T04:31:21;20.13;;;15.20;;
4980;SDS011;2507;50.392;7.482;2023-02-08T04:33:46;25.40;;;17.50;;
4980;SDS011;2507;50.392;7.482;2023-02-08T04:36:12;21.53;;;15.97;;
4980;SDS011;2507;50.392;7.482;2023-02-08T04:38:37;22.17;;;15.40;;
4980;SDS011;2507;50.392;7.482;2023-02-08T04:41:02;23.60;;;16.70;;
4980;SDS011;2507;50.392;7.482;2023-02-08T04:43:28;21.23;;;13.77;;
4980;SDS011;2507;50.392;7.482;2023-02-08T04:45:53;20.70;;;15.43;;
4980;SDS011;2507;50.392;7.482;2023-02-08T04:48:18;23.60;;;14.97;;
4980;SDS011;2507;50.392;7.482;2023-02-08T04:50:44;22.60;;;16.50;;
4980;SDS011;2507;50.392;7.482;2023-02-08T04:53:10;19.40;;;15.20;;
4980;SDS011;2507;50.392;7.482;2023-02-08T04:55:35;17.80;;;14.83;;
4980;SDS011;2507;50.392;7.482;2023-02-08T04:58:00;21.27;;;16.10;;
4980;SDS011;2507;50.392;7.482;2023-02-08T05:00:26;19.30;;;15.13;;
4980;SDS011;2507;50.392;7.482;2023-02-08T05:02:52;20.63;;;15.37;;
4980;SDS011;2507;50.392;7.482;2023-02-08T05:05:18;21.10;;;15.40;;
4980;SDS011;2507;50.392;7.482;2023-02-08T05:07:44;21.60;;;16.43;;
4980;SDS011;2507;50.392;7.482;2023-02-08T05:10:09;20.47;;;14.80;;
4980;SDS011;2507;50.392;7.482;2023-02-08T05:12:35;23.20;;;15.23;;
4980;SDS011;2507;50.392;7.482;2023-02-08T05:15:00;27.20;;;14.87;;
4980;SDS011;2507;50.392;7.482;2023-02-08T05:17:25;28.80;;;15.63;;
4980;SDS011;2507;50.392;7.482;2023-02-08T05:19:50;21.23;;;13.70;;
4980;SDS011;2507;50.392;7.482;2023-02-08T05:22:16;20.57;;;15.30;;
4980;SDS011;2507;50.392;7.482;2023-02-08T05:24:41;22.90;;;16.13;;
4980;SDS011;2507;50.392;7.482;2023-02-08T05:27:06;21.40;;;14.67;;
4980;SDS011;2507;50.392;7.482;2023-02-08T05:29:31;17.00;;;13.17;;
4980;SDS011;2507;50.392;7.482;2023-02-08T05:31:57;18.57;;;14.30;;
4980;SDS011;2507;50.392;7.482;2023-02-08T05:34:22;20.73;;;14.80;;
4980;SDS011;2507;50.392;7.482;2023-02-08T05:36:47;19.87;;;13.80;;
4980;SDS011;2507;50.392;7.482;2023-02-08T05:39:13;18.53;;;14.93;;
4980;SDS011;2507;50.392;7.482;2023-02-08T05:41:38;23.50;;;15.60;;
4980;SDS011;2507;50.392;7.482;2023-02-08T05:44:03;22.70;;;15.10;;
4980;SDS011;2507;50.392;7.482;2023-02-08T05:46:28;20.50;;;14.50;;
4980;SDS011;2507;50.392;7.482;2023-02-08T05:48:54;21.93;;;16.23;;
4980;SDS011;2507;50.392;7.482;2023-02-08T05:51:19;20.73;;;14.80;;
4980;SDS011;2507;50.392;7.482;2023-02-08T05:53:45;22.37;;;15.47;;
4980;SDS011;2507;50.392;7.482;2023-02-08T05:56:10;21.77;;;14.97;;
4980;SDS011;2507;50.392;7.482;2023-02-08T05:58:35;21.23;;;14.27;;
4980;SDS011;2507;50.392;7.482;2023-02-08T06:01:06;18.43;;;13.40;;
4980;SDS011;2507;50.392;7.482;2023-02-08T06:03:34;18.80;;;14.03;;
4980;SDS011;2507;50.392;7.482;2023-02-08T06:06:00;22.13;;;17.30;;
4980;SDS011;2507;50.392;7.482;2023-02-08T06:08:25;21.83;;;16.87;;
4980;SDS011;2507;50.392;7.482;2023-02-08T06:10:51;23.00;;;15.70;;
4980;SDS011;2507;50.392;7.482;2023-02-08T06:13:16;20.73;;;15.90;;
4980;SDS011;2507;50.392;7.482;2023-02-08T06:15:41;23.17;;;16.27;;
4980;SDS011;2507;50.392;7.482;2023-02-08T06:18:07;22.57;;;14.63;;
4980;SDS011;2507;50.392;7.482;2023-02-08T06:20:33;20.10;;;15.70;;
4980;SDS011;2507;50.392;7.482;2023-02-08T06:22:58;21.70;;;14.97;;
4980;SDS011;2507;50.392;7.482;2023-02-08T06:25:23;20.00;;;14.20;;
4980;SDS011;2507;50.392;7.482;2023-02-08T06:27:49;21.10;;;14.47;;
4980;SDS011;2507;50.392;7.482;2023-02-08T06:30:14;23.27;;;15.07;;
4980;SDS011;2507;50.392;7.482;2023-02-08T06:32:39;19.37;;;15.23;;
4980;SDS011;2507;50.392;7.482;2023-02-08T06:35:05;19.70;;;15.70;;
4980;SDS011;2507;50.392;7.482;2023-02-08T06:37:31;19.33;;;15.17;;
4980;SDS011;2507;50.392;7.482;2023-02-08T06:39:56;19.63;;;15.00;;
4980;SDS011;2507;50.392;7.482;2023-02-08T06:42:21;22.03;;;16.40;;
4980;SDS011;2507;50.392;7.482;2023-02-08T06:44:46;21.23;;;14.80;;
4980;SDS011;2507;50.392;7.482;2023-02-08T06:47:14;24.40;;;15.80;;
4980;SDS011;2507;50.392;7.482;2023-02-08T06:49:39;23.50;;;15.77;;
4980;SDS011;2507;50.392;7.482;2023-02-08T06:52:05;21.67;;;15.47;;
4980;SDS011;2507;50.392;7.482;2023-02-08T06:54:31;17.20;;;14.10;;
4980;SDS011;2507;50.392;7.482;2023-02-08T06:56:56;22.20;;;16.77;;
4980;SDS011;2507;50.392;7.482;2023-02-08T06:59:21;20.97;;;15.37;;
4980;SDS011;2507;50.392;7.482;2023-02-08T07:01:46;19.33;;;14.93;;
4980;SDS011;2507;50.392;7.482;2023-02-08T07:04:12;22.10;;;14.47;;
4980;SDS011;2507;50.392;7.482;2023-02-08T07:06:37;19.47;;;15.07;;
4980;SDS011;2507;50.392;7.482;2023-02-08T07:09:02;19.10;;;14.80;;
4980;SDS011;2507;50.392;7.482;2023-02-08T07:11:28;18.40;;;15.00;;
4980;SDS011;2507;50.392;7.482;2023-02-08T07:13:54;19.33;;;14.80;;
4980;SDS011;2507;50.392;7.482;2023-02-08T07:16:19;19.07;;;14.20;;
4980;SDS011;2507;50.392;7.482;2023-02-08T07:18:45;20.90;;;14.87;;
4980;SDS011;2507;50.392;7.482;2023-02-08T07:21:10;17.30;;;13.43;;
4980;SDS011;2507;50.392;7.482;2023-02-08T07:23:36;18.60;;;13.80;;
4980;SDS011;2507;50.392;7.482;2023-02-08T07:26:04;19.63;;;14.80;;
4980;SDS011;2507;50.392;7.482;2023-02-08T07:28:31;24.97;;;16.20;;
4980;SDS011;2507;50.392;7.482;2023-02-08T07:30:56;25.13;;;15.30;;
4980;SDS011;2507;50.392;7.482;2023-02-08T07:33:22;20.47;;;16.50;;
4980;SDS011;2507;50.392;7.482;2023-02-08T07:35:48;21.70;;;15.27;;
4980;SDS011;2507;50.392;7.482;2023-02-08T07:38:13;19.37;;;14.73;;
4980;SDS011;2507;50.392;7.482;2023-02-08T07:40:39;22.53;;;15.93;;
4980;SDS011;2507;50.392;7.482;2023-02-08T07:43:04;21.23;;;15.47;;
4980;SDS011;2507;50.392;7.482;2023-02-08T07:45:30;21.63;;;15.23;;
4980;SDS011;2507;50.392;7.482;2023-02-08T07:47:55;19.77;;;14.70;;
4980;SDS011;2507;50.392;7.482;2023-02-08T07:50:21;19.50;;;15.30;;
4980;SDS011;2507;50.392;7.482;2023-02-08T07:52:46;17.10;;;14.30;;
4980;SDS011;2507;50.392;7.482;2023-02-08T07:55:13;16.10;;;13.63;;
4980;SDS011;2507;50.392;7.482;2023-02-08T07:57:43;18.20;;;15.27;;
4980;SDS011;2507;50.392;7.482;2023-02-08T08:00:09;21.47;;;14.60;;
4980;SDS011;2507;50.392;7.482;2023-02-08T08:02:35;16.77;;;13.97;;
4980;SDS011;2507;50.392;7.482;2023-02-08T08:05:00;19.60;;;15.43;;
4980;SDS011;2507;50.392;7.482;2023-02-08T08:07:26;20.80;;;14.80;;
4980;SDS011;2507;50.392;7.482;2023-02-08T08:09:51;19.57;;;15.07;;
4980;SDS011;2507;50.392;7.482;2023-02-08T08:12:16;19.53;;;15.53;;
4980;SDS011;2507;50.392;7.482;2023-02-08T08:14:42;21.93;;;16.10;;
4980;SDS011;2507;50.392;7.482;2023-02-08T08:17:07;18.77;;;15.70;;
4980;SDS011;2507;50.392;7.482;2023-02-08T08:19:32;25.80;;;17.70;;
4980;SDS011;2507;50.392;7.482;2023-02-08T08:21:57;20.90;;;16.40;;
4980;SDS011;2507;50.392;7.482;2023-02-08T08:24:23;20.27;;;17.03;;
4980;SDS011;2507;50.392;7.482;2023-02-08T08:26:48;23.23;;;16.97;;
4980;SDS011;2507;50.392;7.482;2023-02-08T08:29:13;21.93;;;16.80;;
4980;SDS011;2507;50.392;7.482;2023-02-08T08:31:39;22.03;;;16.47;;
4980;SDS011;2507;50.392;7.482;2023-02-08T08:34:04;20.90;;;15.13;;
4980;SDS011;2507;50.392;7.482;2023-02-08T08:36:29;20.07;;;16.43;;
4980;SDS011;2507;50.392;7.482;2023-02-08T08:38:54;21.60;;;17.30;;
4980;SDS011;2507;50.392;7.482;2023-02-08T08:41:20;23.10;;;17.17;;
4980;SDS011;2507;50.392;7.482;2023-02-08T08:43:47;23.43;;;15.60;;
4980;SDS011;2507;50.392;7.482;2023-02-08T08:46:12;19.90;;;15.70;;
4980;SDS011;2507;50.392;7.482;2023-02-08T08:48:40;20.27;;;16.00;;
4980;SDS011;2507;50.392;7.482;2023-02-08T08:51:05;23.47;;;17.27;;
4980;SDS011;2507;50.392;7.482;2023-02-08T08:53:31;33.00;;;18.03;;
4980;SDS011;2507;50.392;7.482;2023-02-08T08:55:57;25.10;;;17.13;;
4980;SDS011;2507;50.392;7.482;2023-02-08T08:58:22;24.23;;;17.30;;
4980;SDS011;2507;50.392;7.482;2023-02-08T09:00:47;21.13;;;16.57;;
4980;SDS011;2507;50.392;7.482;2023-02-08T09:03:13;26.70;;;17.77;;
4980;SDS011;2507;50.392;7.482;2023-02-08T09:05:38;25.50;;;19.43;;
4980;SDS011;2507;50.392;7.482;2023-02-08T09:08:03;29.57;;;20.57;;
4980;SDS011;2507;50.392;7.482;2023-02-08T09:10:29;24.80;;;19.40;;
4980;SDS011;2507;50.392;7.482;2023-02-08T09:12:55;31.00;;;20.87;;
4980;SDS011;2507;50.392;7.482;2023-02-08T09:15:22;24.93;;;19.67;;
4980;SDS011;2507;50.392;7.482;2023-02-08T09:17:47;24.00;;;18.63;;
4980;SDS011;2507;50.392;7.482;2023-02-08T09:20:13;23.80;;;19.10;;
4980;SDS011;2507;50.392;7.482;2023-02-08T09:22:38;28.87;;;18.80;;
4980;SDS011;2507;50.392;7.482;2023-02-08T09:25:04;24.53;;;18.53;;
4980;SDS011;2507;50.392;7.482;2023-02-08T09:27:31;28.47;;;19.17;;
4980;SDS011;2507;50.392;7.482;2023-02-08T09:29:56;24.87;;;18.67;;
4980;SDS011;2507;50.392;7.482;2023-02-08T09:32:21;22.07;;;18.27;;
4980;SDS011;2507;50.392;7.482;2023-02-08T09:34:47;23.30;;;18.17;;
4980;SDS011;2507;50.392;7.482;2023-02-08T09:37:12;24.20;;;18.20;;
4980;SDS011;2507;50.392;7.482;2023-02-08T09:39:39;25.10;;;18.57;;
4980;SDS011;2507;50.392;7.482;2023-02-08T09:42:09;30.30;;;17.90;;
4980;SDS011;2507;50.392;7.482;2023-02-08T09:45:02;22.20;;;17.20;;
4980;SDS011;2507;50.392;7.482;2023-02-08T09:47:33;21.33;;;16.20;;
4980;SDS011;2507;50.392;7.482;2023-02-08T09:50:02;21.83;;;16.23;;
4980;SDS011;2507;50.392;7.482;2023-02-08T09:52:51;25.97;;;17.70;;
4980;SDS011;2507;50.392;7.482;2023-02-08T09:57:56;27.77;;;16.87;;
4980;SDS011;2507;50.392;7.482;2023-02-08T10:00:29;20.23;;;16.80;;
4980;SDS011;2507;50.392;7.482;2023-02-08T10:02:59;26.10;;;17.03;;
4980;SDS011;2507;50.392;7.482;2023-02-08T10:05:25;28.03;;;16.57;;
4980;SDS011;2507;50.392;7.482;2023-02-08T10:07:53;22.47;;;14.93;;
4980;SDS011;2507;50.392;7.482;2023-02-08T10:10:23;20.73;;;16.00;;
4980;SDS011;2507;50.392;7.482;2023-02-08T10:16:18;19.60;;;16.17;;
4980;SDS011;2507;50.392;7.482;2023-02-08T10:19:02;20.23;;;16.07;;
4980;SDS011;2507;50.392;7.482;2023-02-08T10:28:05;25.17;;;16.53;;
4980;SDS011;2507;50.392;7.482;2023-02-08T10:33:00;22.07;;;17.23;;
4980;SDS011;2507;50.392;7.482;2023-02-08T10:35:32;22.10;;;17.00;;
4980;SDS011;2507;50.392;7.482;2023-02-08T10:38:12;20.30;;;15.53;;
4980;SDS011;2507;50.392;7.482;2023-02-08T10:40:48;17.73;;;15.50;;
4980;SDS011;2507;50.392;7.482;2023-02-08T10:43:18;19.90;;;15.90;;
4980;SDS011;2507;50.392;7.482;2023-02-08T10:45:57;19.50;;;16.50;;
4980;SDS011;2507;50.392;7.482;2023-02-08T10:48:33;23.57;;;16.37;;
4980;SDS011;2507;50.392;7.482;2023-02-08T10:51:02;19.20;;;15.10;;
4980;SDS011;2507;50.392;7.482;2023-02-08T10:53:27;19.20;;;14.93;;
4980;SDS011;2507;50.392;7.482;2023-02-08T10:55:53;23.40;;;16.37;;
4980;SDS011;2507;50.392;7.482;2023-02-08T10:58:19;22.20;;;16.33;;
4980;SDS011;2507;50.392;7.482;2023-02-08T11:00:49;25.77;;;16.30;;
4980;SDS011;2507;50.392;7.482;2023-02-08T11:03:25;24.93;;;15.60;;
4980;SDS011;2507;50.392;7.482;2023-02-08T11:05:52;18.80;;;14.80;;
4980;SDS011;2507;50.392;7.482;2023-02-08T11:08:19;22.83;;;15.17;;
4980;SDS011;2507;50.392;7.482;2023-02-08T11:11:02;18.43;;;15.77;;
4980;SDS011;2507;50.392;7.482;2023-02-08T11:16:10;20.47;;;15.50;;
4980;SDS011;2507;50.392;7.482;2023-02-08T11:18:48;20.40;;;14.60;;
4980;SDS011;2507;50.392;7.482;2023-02-08T11:21:29;16.30;;;12.93;;
4980;SDS011;2507;50.392;7.482;2023-02-08T11:24:25;22.63;;;15.07;;
4980;SDS011;2507;50.392;7.482;2023-02-08T11:26:53;15.40;;;13.20;;
4980;SDS011;2507;50.392;7.482;2023-02-08T11:34:22;20.50;;;13.77;;
4980;SDS011;2507;50.392;7.482;2023-02-08T11:36:49;20.87;;;12.60;;
4980;SDS011;2507;50.392;7.482;2023-02-08T11:39:21;15.97;;;11.80;;
4980;SDS011;2507;50.392;7.482;2023-02-08T11:41:50;16.70;;;12.90;;
4980;SDS011;2507;50.392;7.482;2023-02-08T11:44:22;14.07;;;11.43;;
4980;SDS011;2507;50.392;7.482;2023-02-08T11:46:51;16.47;;;11.73;;
4980;SDS011;2507;50.392;7.482;2023-02-08T11:49:19;15.47;;;12.30;;
4980;SDS011;2507;50.392;7.482;2023-02-08T11:51:47;16.23;;;12.10;;
4980;SDS011;2507;50.392;7.482;2023-02-08T11:54:33;16.80;;;12.50;;
4980;SDS011;2507;50.392;7.482;2023-02-08T11:57:08;14.97;;;12.80;;
4980;SDS011;2507;50.392;7.482;2023-02-08T11:59:36;14.73;;;11.20;;
4980;SDS011;2507;50.392;7.482;2023-02-08T12:02:17;14.30;;;10.57;;
4980;SDS011;2507;50.392;7.482;2023-02-08T12:04:46;12.10;;;10.80;;
4980;SDS011;2507;50.392;7.482;2023-02-08T12:07:35;12.07;;;10.83;;
4980;SDS011;2507;50.392;7.482;2023-02-08T12:16:26;7.77;;;7.07;;
4980;SDS011;2507;50.392;7.482;2023-02-08T12:19:10;8.33;;;6.23;;
4980;SDS011;2507;50.392;7.482;2023-02-08T12:21:44;5.80;;;5.40;;
4980;SDS011;2507;50.392;7.482;2023-02-08T12:24:17;7.80;;;6.83;;
4980;SDS011;2507;50.392;7.482;2023-02-08T12:27:10;8.27;;;7.50;;
4980;SDS011;2507;50.392;7.482;2023-02-08T12:32:36;8.00;;;7.00;;
4980;SDS011;2507;50.392;7.482;2023-02-08T12:35:30;9.07;;;8.17;;
4980;SDS011;2507;50.392;7.482;2023-02-08T12:38:01;8.40;;;7.60;;
4980;SDS011;2507;50.392;7.482;2023-02-08T12:41:01;7.33;;;6.53;;
4980;SDS011;2507;50.392;7.482;2023-02-08T12:43:49;9.93;;;6.80;;
4980;SDS011;2507;50.392;7.482;2023-02-08T12:55:16;14.30;;;6.27;;
4980;SDS011;2507;50.392;7.482;2023-02-08T12:57:51;6.93;;;6.13;;
4980;SDS011;2507;50.392;7.482;2023-02-08T13:05:37;7.30;;;6.60;;
4980;SDS011;2507;50.392;7.482;2023-02-08T13:11:08;6.73;;;6.13;;
4980;SDS011;2507;50.392;7.482;2023-02-08T13:13:38;7.33;;;6.20;;
4980;SDS011;2507;50.392;7.482;2023-02-08T13:16:08;7.00;;;6.30;;
4980;SDS011;2507;50.392;7.482;2023-02-08T13:18:42;10.60;;;7.60;;
4980;SDS011;2507;50.392;7.482;2023-02-08T13:21:33;10.30;;;8.70;;
4980;SDS011;2507;50.392;7.482;2023-02-08T13:24:02;7.00;;;6.30;;
4980;SDS011;2507;50.392;7.482;2023-02-08T13:26:32;6.50;;;5.90;;
4980;SDS011;2507;50.392;7.482;2023-02-08T13:29:00;6.73;;;6.13;;
4980;SDS011;2507;50.392;7.482;2023-02-08T13:31:28;6.63;;;5.93;;
4980;SDS011;2507;50.392;7.482;2023-02-08T13:34:06;6.60;;;6.00;;
4980;SDS011;2507;50.392;7.482;2023-02-08T13:36:38;11.60;;;6.53;;
4980;SDS011;2507;50.392;7.482;2023-02-08T13:39:07;7.10;;;5.87;;
4980;SDS011;2507;50.392;7.482;2023-02-08T13:41:49;6.87;;;6.17;;
4980;SDS011;2507;50.392;7.482;2023-02-08T13:44:18;7.70;;;6.00;;
4980;SDS011;2507;50.392;7.482;2023-02-08T13:46:48;6.50;;;5.90;;
4980;SDS011;2507;50.392;7.482;2023-02-08T13:52:06;6.53;;;5.90;;
4980;SDS011;2507;50.392;7.482;2023-02-08T13:54:32;6.53;;;5.60;;
4980;SDS011;2507;50.392;7.482;2023-02-08T13:56:58;12.07;;;6.30;;
4980;SDS011;2507;50.392;7.482;2023-02-08T14:04:36;6.33;;;5.50;;
4980;SDS011;2507;50.392;7.482;2023-02-08T14:07:05;6.33;;;5.50;;
4980;SDS011;2507;50.392;7.482;2023-02-08T14:14:42;5.90;;;5.40;;
4980;SDS011;2507;50.392;7.482;2023-02-08T14:19:36;5.90;;;5.40;;
4980;SDS011;2507;50.392;7.482;2023-02-08T14:22:05;5.70;;;5.30;;
4980;SDS011;2507;50.392;7.482;2023-02-08T14:24:43;5.50;;;5.00;;
4980;SDS011;2507;50.392;7.482;2023-02-08T14:27:16;5.73;;;5.23;;
4980;SDS011;2507;50.392;7.482;2023-02-08T14:32:31;9.57;;;5.37;;
4980;SDS011;2507;50.392;7.482;2023-02-08T14:35:21;5.63;;;4.60;;
4980;SDS011;2507;50.392;7.482;2023-02-08T14:37:47;6.70;;;6.10;;
4980;SDS011;2507;50.392;7.482;2023-02-08T14:45:31;4.93;;;4.43;;
4980;SDS011;2507;50.392;7.482;2023-02-08T14:47:59;6.17;;;4.97;;
4980;SDS011;2507;50.392;7.482;2023-02-08T14:50:32;5.50;;;4.50;;
4980;SDS011;2507;50.392;7.482;2023-02-08T14:55:53;5.43;;;4.93;;
4980;SDS011;2507;50.392;7.482;2023-02-08T14:58:27;4.60;;;4.20;;
4980;SDS011;2507;50.392;7.482;2023-02-08T15:00:55;5.70;;;4.60;;
4980;SDS011;2507;50.392;7.482;2023-02-08T15:03:24;9.00;;;5.60;;
4980;SDS011;2507;50.392;7.482;2023-02-08T15:08:32;5.10;;;4.70;;
4980;SDS011;2507;50.392;7.482;2023-02-08T15:10:57;6.70;;;5.20;;
4980;SDS011;2507;50.392;7.482;2023-02-08T15:13:23;7.73;;;6.50;;
4980;SDS011;2507;50.392;7.482;2023-02-08T15:15:50;5.67;;;5.07;;
4980;SDS011;2507;50.392;7.482;2023-02-08T15:18:22;5.10;;;4.63;;
4980;SDS011;2507;50.392;7.482;2023-02-08T15:20:57;7.43;;;5.50;;
4980;SDS011;2507;50.392;7.482;2023-02-08T15:23:28;6.07;;;5.53;;
4980;SDS011;2507;50.392;7.482;2023-02-08T15:28:20;6.67;;;6.00;;
4980;SDS011;2507;50.392;7.482;2023-02-08T15:30:53;6.73;;;6.13;;
4980;SDS011;2507;50.392;7.482;2023-02-08T15:33:18;6.50;;;5.20;;
4980;SDS011;2507;50.392;7.482;2023-02-08T15:35:45;13.20;;;9.40;;
4980;SDS011;2507;50.392;7.482;2023-02-08T15:38:20;8.07;;;7.23;;
4980;SDS011;2507;50.392;7.482;2023-02-08T15:41:06;16.50;;;8.40;;
4980;SDS011;2507;50.392;7.482;2023-02-08T15:43:34;7.13;;;6.40;;
4980;SDS011;2507;50.392;7.482;2023-02-08T15:46:02;7.77;;;6.90;;
4980;SDS011;2507;50.392;7.482;2023-02-08T15:48:30;10.03;;;7.93;;
4980;SDS011;2507;50.392;7.482;2023-02-08T15:50:57;12.23;;;7.30;;
4980;SDS011;2507;50.392;7.482;2023-02-08T15:53:24;7.50;;;6.70;;
4980;SDS011;2507;50.392;7.482;2023-02-08T15:55:55;7.97;;;7.23;;
4980;SDS011;2507;50.392;7.482;2023-02-08T16:00:52;11.20;;;7.80;;
4980;SDS011;2507;50.392;7.482;2023-02-08T16:03:20;9.13;;;7.20;;
4980;SDS011;2507;50.392;7.482;2023-02-08T16:05:50;9.53;;;8.30;;
4980;SDS011;2507;50.392;7.482;2023-02-08T16:08:26;10.93;;;8.33;;
4980;SDS011;2507;50.392;7.482;2023-02-08T16:10:55;10.43;;;9.33;;
4980;SDS011;2507;50.392;7.482;2023-02-08T16:13:30;7.00;;;5.77;;
4980;SDS011;2507;50.392;7.482;2023-02-08T16:18:41;5.27;;;4.60;;
4980;SDS011;2507;50.392;7.482;2023-02-08T16:23:55;6.87;;;5.40;;
4980;SDS011;2507;50.392;7.482;2023-02-08T16:26:30;5.60;;;5.10;;
4980;SDS011;2507;50.392;7.482;2023-02-08T16:29:00;5.57;;;5.07;;
4980;SDS011;2507;50.392;7.482;2023-02-08T16:31:32;5.33;;;4.83;;
4980;SDS011;2507;50.392;7.482;2023-02-08T16:34:00;5.83;;;5.30;;
4980;SDS011;2507;50.392;7.482;2023-02-08T16:36:28;6.10;;;5.57;;
4980;SDS011;2507;50.392;7.482;2023-02-08T16:39:39;9.63;;;6.07;;
4980;SDS011;2507;50.392;7.482;2023-02-08T16:44:22;11.17;;;10.07;;
4980;SDS011;2507;50.392;7.482;2023-02-08T16:46:49;13.40;;;11.80;;
4980;SDS011;2507;50.392;7.482;2023-02-08T16:49:15;10.13;;;8.53;;
4980;SDS011;2507;50.392;7.482;2023-02-08T16:51:40;10.60;;;9.17;;
4980;SDS011;2507;50.392;7.482;2023-02-08T16:54:09;15.23;;;10.93;;
4980;SDS011;2507;50.392;7.482;2023-02-08T16:56:37;9.60;;;8.60;;
4980;SDS011;2507;50.392;7.482;2023-02-08T16:59:05;8.07;;;7.30;;
4980;SDS011;2507;50.392;7.482;2023-02-08T17:01:31;7.50;;;6.60;;
4980;SDS011;2507;50.392;7.482;2023-02-08T17:03:57;9.40;;;7.33;;
4980;SDS011;2507;50.392;7.482;2023-02-08T17:08:55;16.10;;;11.83;;
4980;SDS011;2507;50.392;7.482;2023-02-08T17:11:22;20.20;;;15.70;;